sensor_id;sensor_type;location;lat;lon;timestamp;P1;durP1;ratioP1;P2;durP2;ratioP2
63259;SDS011;49390;51.380;0.098;2022-09-27T00:01:18;6.88;;;2.05;;
63259;SDS011;49390;51.380;0.098;2022-09-27T00:03:46;7.57;;;1.98;;
63259;SDS011;49390;51.380;0.098;2022-09-27T00:06:17;7.32;;;1.92;;
63259;SDS011;49390;51.380;0.098;2022-09-27T00:08:50;6.28;;;1.80;;
63259;SDS011;49390;51.380;0.098;2022-09-27T00:11:23;7.57;;;2.05;;
63259;SDS011;49390;51.380;0.098;2022-09-27T00:14:00;5.20;;;1.95;;
63259;SDS011;49390;51.380;0.098;2022-09-27T00:16:29;8.07;;;2.28;;
63259;SDS011;49390;51.380;0.098;2022-09-27T00:19:05;7.38;;;2.10;;
63259;SDS011;49390;51.380;0.098;2022-09-27T00:21:37;7.30;;;2.00;;
63259;SDS011;49390;51.380;0.098;2022-09-27T00:24:05;8.32;;;2.42;;
63259;SDS011;49390;51.380;0.098;2022-09-27T00:26:36;4.85;;;2.08;;
63259;SDS011;49390;51.380;0.098;2022-09-27T00:29:05;6.97;;;1.80;;
63259;SDS011;49390;51.380;0.098;2022-09-27T00:31:33;4.88;;;2.08;;
63259;SDS011;49390;51.380;0.098;2022-09-27T00:34:02;9.85;;;2.47;;
63259;SDS011;49390;51.380;0.098;2022-09-27T00:36:31;5.07;;;1.90;;
63259;SDS011;49390;51.380;0.098;2022-09-27T00:39:00;5.35;;;1.73;;
63259;SDS011;49390;51.380;0.098;2022-09-27T00:41:32;5.90;;;1.95;;
63259;SDS011;49390;51.380;0.098;2022-09-27T00:49:45;5.10;;;2.10;;
63259;SDS011;49390;51.380;0.098;2022-09-27T00:55:18;7.22;;;1.80;;
63259;SDS011;49390;51.380;0.098;2022-09-27T00:57:50;8.77;;;2.00;;
63259;SDS011;49390;51.380;0.098;2022-09-27T01:00:18;7.78;;;1.90;;
63259;SDS011;49390;51.380;0.098;2022-09-27T01:02:49;6.55;;;1.90;;
63259;SDS011;49390;51.380;0.098;2022-09-27T01:05:23;4.72;;;1.90;;
63259;SDS011;49390;51.380;0.098;2022-09-27T01:07:54;8.15;;;2.10;;
63259;SDS011;49390;51.380;0.098;2022-09-27T01:10:27;8.80;;;2.10;;
63259;SDS011;49390;51.380;0.098;2022-09-27T01:13:12;7.32;;;2.22;;
63259;SDS011;49390;51.380;0.098;2022-09-27T01:18:37;6.93;;;2.23;;
63259;SDS011;49390;51.380;0.098;2022-09-27T01:21:30;8.50;;;1.90;;
63259;SDS011;49390;51.380;0.098;2022-09-27T01:24:24;6.32;;;2.10;;
63259;SDS011;49390;51.380;0.098;2022-09-27T01:27:14;6.63;;;1.83;;
63259;SDS011;49390;51.380;0.098;2022-09-27T01:32:47;9.13;;;1.90;;
63259;SDS011;49390;51.380;0.098;2022-09-27T01:35:33;3.97;;;1.70;;
63259;SDS011;49390;51.380;0.098;2022-09-27T01:38:41;7.70;;;1.98;;
63259;SDS011;49390;51.380;0.098;2022-09-27T01:41:31;9.45;;;1.90;;
63259;SDS011;49390;51.380;0.098;2022-09-27T01:45:13;6.68;;;1.90;;
63259;SDS011;49390;51.380;0.098;2022-09-27T01:47:28;6.63;;;2.00;;
63259;SDS011;49390;51.380;0.098;2022-09-27T01:50:23;8.52;;;2.20;;
63259;SDS011;49390;51.380;0.098;2022-09-27T01:52:58;5.88;;;2.28;;
63259;SDS011;49390;51.380;0.098;2022-09-27T01:55:44;6.65;;;2.15;;
63259;SDS011;49390;51.380;0.098;2022-09-27T01:59:19;7.28;;;1.60;;
63259;SDS011;49390;51.380;0.098;2022-09-27T02:01:49;6.65;;;1.65;;
63259;SDS011;49390;51.380;0.098;2022-09-27T02:04:23;9.98;;;2.20;;
63259;SDS011;49390;51.380;0.098;2022-09-27T02:07:11;6.90;;;1.95;;
63259;SDS011;49390;51.380;0.098;2022-09-27T02:09:56;6.57;;;2.00;;
63259;SDS011;49390;51.380;0.098;2022-09-27T02:12:53;6.72;;;1.80;;
63259;SDS011;49390;51.380;0.098;2022-09-27T02:15:34;7.53;;;1.90;;
63259;SDS011;49390;51.380;0.098;2022-09-27T02:18:31;8.30;;;2.03;;
63259;SDS011;49390;51.380;0.098;2022-09-27T02:21:08;5.90;;;2.08;;
63259;SDS011;49390;51.380;0.098;2022-09-27T02:23:45;7.25;;;1.92;;
63259;SDS011;49390;51.380;0.098;2022-09-27T02:26:25;6.72;;;1.88;;
63259;SDS011;49390;51.380;0.098;2022-09-27T02:31:50;8.65;;;2.00;;
63259;SDS011;49390;51.380;0.098;2022-09-27T02:34:20;9.73;;;2.63;;
63259;SDS011;49390;51.380;0.098;2022-09-27T02:36:50;7.40;;;1.90;;
63259;SDS011;49390;51.380;0.098;2022-09-27T02:39:20;8.25;;;2.03;;
63259;SDS011;49390;51.380;0.098;2022-09-27T02:42:00;9.05;;;2.58;;
63259;SDS011;49390;51.380;0.098;2022-09-27T02:44:28;7.20;;;2.10;;
63259;SDS011;49390;51.380;0.098;2022-09-27T02:49:42;6.90;;;1.90;;
63259;SDS011;49390;51.380;0.098;2022-09-27T03:05:28;9.20;;;2.55;;
63259;SDS011;49390;51.380;0.098;2022-09-27T03:08:00;7.95;;;1.95;;
63259;SDS011;49390;51.380;0.098;2022-09-27T03:10:30;7.60;;;1.77;;
63259;SDS011;49390;51.380;0.098;2022-09-27T03:12:58;6.63;;;1.73;;
63259;SDS011;49390;51.380;0.098;2022-09-27T03:15:27;11.77;;;1.92;;
63259;SDS011;49390;51.380;0.098;2022-09-27T03:18:01;8.52;;;2.03;;
63259;SDS011;49390;51.380;0.098;2022-09-27T03:20:49;7.75;;;1.92;;
63259;SDS011;49390;51.380;0.098;2022-09-27T03:23:21;8.55;;;1.80;;
63259;SDS011;49390;51.380;0.098;2022-09-27T03:25:49;8.80;;;2.35;;
63259;SDS011;49390;51.380;0.098;2022-09-27T03:28:18;6.97;;;2.03;;
63259;SDS011;49390;51.380;0.098;2022-09-27T03:30:47;7.13;;;2.03;;
63259;SDS011;49390;51.380;0.098;2022-09-27T03:33:35;10.45;;;2.40;;
63259;SDS011;49390;51.380;0.098;2022-09-27T03:36:08;11.60;;;2.20;;
63259;SDS011;49390;51.380;0.098;2022-09-27T03:38:36;9.27;;;2.35;;
63259;SDS011;49390;51.380;0.098;2022-09-27T03:41:07;11.48;;;2.17;;
63259;SDS011;49390;51.380;0.098;2022-09-27T03:43:36;7.45;;;1.90;;
63259;SDS011;49390;51.380;0.098;2022-09-27T03:46:05;5.32;;;2.00;;
63259;SDS011;49390;51.380;0.098;2022-09-27T03:48:33;5.35;;;1.65;;
63259;SDS011;49390;51.380;0.098;2022-09-27T03:51:01;7.13;;;2.67;;
63259;SDS011;49390;51.380;0.098;2022-09-27T03:53:31;8.70;;;2.10;;
63259;SDS011;49390;51.380;0.098;2022-09-27T03:55:58;7.40;;;1.77;;
63259;SDS011;49390;51.380;0.098;2022-09-27T03:58:27;6.90;;;1.80;;
63259;SDS011;49390;51.380;0.098;2022-09-27T04:00:55;11.00;;;1.70;;
63259;SDS011;49390;51.380;0.098;2022-09-27T04:04:00;7.75;;;2.15;;
63259;SDS011;49390;51.380;0.098;2022-09-27T04:06:37;8.63;;;1.73;;
63259;SDS011;49390;51.380;0.098;2022-09-27T04:09:05;6.32;;;1.90;;
63259;SDS011;49390;51.380;0.098;2022-09-27T04:11:56;7.78;;;2.13;;
63259;SDS011;49390;51.380;0.098;2022-09-27T04:14:23;12.57;;;3.10;;
63259;SDS011;49390;51.380;0.098;2022-09-27T04:17:14;9.55;;;1.90;;
63259;SDS011;49390;51.380;0.098;2022-09-27T04:20:02;5.32;;;1.70;;
63259;SDS011;49390;51.380;0.098;2022-09-27T04:22:32;9.35;;;2.03;;
63259;SDS011;49390;51.380;0.098;2022-09-27T04:25:00;9.05;;;2.00;;
63259;SDS011;49390;51.380;0.098;2022-09-27T04:27:36;8.18;;;2.30;;
63259;SDS011;49390;51.380;0.098;2022-09-27T04:30:05;6.38;;;1.83;;
63259;SDS011;49390;51.380;0.098;2022-09-27T04:32:54;9.15;;;1.83;;
63259;SDS011;49390;51.380;0.098;2022-09-27T04:35:47;8.02;;;2.38;;
63259;SDS011;49390;51.380;0.098;2022-09-27T04:38:38;5.30;;;1.63;;
63259;SDS011;49390;51.380;0.098;2022-09-27T04:41:07;6.30;;;2.00;;
63259;SDS011;49390;51.380;0.098;2022-09-27T04:43:39;5.38;;;1.77;;
63259;SDS011;49390;51.380;0.098;2022-09-27T04:46:07;10.40;;;1.83;;
63259;SDS011;49390;51.380;0.098;2022-09-27T04:48:35;7.45;;;1.85;;
63259;SDS011;49390;51.380;0.098;2022-09-27T04:51:04;5.85;;;1.75;;
63259;SDS011;49390;51.380;0.098;2022-09-27T04:53:35;6.10;;;1.70;;
63259;SDS011;49390;51.380;0.098;2022-09-27T04:56:03;6.78;;;2.22;;
63259;SDS011;49390;51.380;0.098;2022-09-27T04:58:34;5.90;;;2.03;;
63259;SDS011;49390;51.380;0.098;2022-09-27T05:01:03;8.40;;;2.42;;
63259;SDS011;49390;51.380;0.098;2022-09-27T05:04:02;8.23;;;1.60;;
63259;SDS011;49390;51.380;0.098;2022-09-27T05:06:30;12.40;;;2.00;;
63259;SDS011;49390;51.380;0.098;2022-09-27T05:09:05;5.75;;;1.98;;
63259;SDS011;49390;51.380;0.098;2022-09-27T05:11:46;5.38;;;2.00;;
63259;SDS011;49390;51.380;0.098;2022-09-27T05:14:33;3.08;;;1.90;;
63259;SDS011;49390;51.380;0.098;2022-09-27T05:17:10;7.25;;;1.98;;
63259;SDS011;49390;51.380;0.098;2022-09-27T05:20:08;5.97;;;1.98;;
63259;SDS011;49390;51.380;0.098;2022-09-27T05:22:53;7.97;;;1.85;;
63259;SDS011;49390;51.380;0.098;2022-09-27T05:25:21;8.13;;;2.20;;
63259;SDS011;49390;51.380;0.098;2022-09-27T05:27:51;8.93;;;2.80;;
63259;SDS011;49390;51.380;0.098;2022-09-27T05:30:19;6.38;;;1.88;;
63259;SDS011;49390;51.380;0.098;2022-09-27T05:32:52;8.00;;;1.85;;
63259;SDS011;49390;51.380;0.098;2022-09-27T05:35:26;6.47;;;1.92;;
63259;SDS011;49390;51.380;0.098;2022-09-27T05:37:57;11.10;;;2.78;;
63259;SDS011;49390;51.380;0.098;2022-09-27T05:40:29;8.35;;;2.03;;
63259;SDS011;49390;51.380;0.098;2022-09-27T05:43:13;3.97;;;1.63;;
63259;SDS011;49390;51.380;0.098;2022-09-27T05:45:42;6.25;;;2.05;;
63259;SDS011;49390;51.380;0.098;2022-09-27T05:48:12;6.15;;;1.88;;
63259;SDS011;49390;51.380;0.098;2022-09-27T05:50:51;11.23;;;2.03;;
63259;SDS011;49390;51.380;0.098;2022-09-27T05:53:19;5.68;;;2.20;;
63259;SDS011;49390;51.380;0.098;2022-09-27T05:55:47;6.50;;;2.20;;
63259;SDS011;49390;51.380;0.098;2022-09-27T05:58:19;7.20;;;2.05;;
63259;SDS011;49390;51.380;0.098;2022-09-27T06:00:53;5.00;;;1.95;;
63259;SDS011;49390;51.380;0.098;2022-09-27T06:03:54;8.93;;;2.03;;
63259;SDS011;49390;51.380;0.098;2022-09-27T06:06:52;7.97;;;1.90;;
63259;SDS011;49390;51.380;0.098;2022-09-27T06:09:21;7.63;;;1.95;;
63259;SDS011;49390;51.380;0.098;2022-09-27T06:11:49;6.72;;;1.88;;
63259;SDS011;49390;51.380;0.098;2022-09-27T06:14:20;6.20;;;1.90;;
63259;SDS011;49390;51.380;0.098;2022-09-27T06:16:59;8.82;;;2.08;;
63259;SDS011;49390;51.380;0.098;2022-09-27T06:19:31;9.68;;;2.55;;
63259;SDS011;49390;51.380;0.098;2022-09-27T06:22:00;6.72;;;1.90;;
63259;SDS011;49390;51.380;0.098;2022-09-27T06:24:37;8.15;;;1.80;;
63259;SDS011;49390;51.380;0.098;2022-09-27T06:27:12;7.88;;;2.15;;
63259;SDS011;49390;51.380;0.098;2022-09-27T06:30:07;6.20;;;1.85;;
63259;SDS011;49390;51.380;0.098;2022-09-27T06:32:45;5.78;;;2.05;;
63259;SDS011;49390;51.380;0.098;2022-09-27T06:35:39;6.95;;;1.75;;
63259;SDS011;49390;51.380;0.098;2022-09-27T06:38:13;6.70;;;1.77;;
63259;SDS011;49390;51.380;0.098;2022-09-27T06:40:49;5.78;;;2.05;;
63259;SDS011;49390;51.380;0.098;2022-09-27T06:43:31;4.60;;;1.60;;
63259;SDS011;49390;51.380;0.098;2022-09-27T06:46:28;7.00;;;2.10;;
63259;SDS011;49390;51.380;0.098;2022-09-27T06:49:15;8.05;;;2.10;;
63259;SDS011;49390;51.380;0.098;2022-09-27T06:51:47;4.10;;;1.58;;
63259;SDS011;49390;51.380;0.098;2022-09-27T06:54:18;5.30;;;1.85;;
63259;SDS011;49390;51.380;0.098;2022-09-27T06:56:46;4.15;;;1.60;;
63259;SDS011;49390;51.380;0.098;2022-09-27T06:59:14;7.63;;;2.15;;
63259;SDS011;49390;51.380;0.098;2022-09-27T07:02:19;6.20;;;1.70;;
63259;SDS011;49390;51.380;0.098;2022-09-27T07:05:06;5.75;;;1.67;;
63259;SDS011;49390;51.380;0.098;2022-09-27T07:07:45;5.95;;;1.90;;
63259;SDS011;49390;51.380;0.098;2022-09-27T07:12:44;5.90;;;1.20;;
63259;SDS011;49390;51.380;0.098;2022-09-27T07:15:16;6.43;;;2.08;;
63259;SDS011;49390;51.380;0.098;2022-09-27T07:17:44;4.32;;;1.70;;
63259;SDS011;49390;51.380;0.098;2022-09-27T07:20:12;4.45;;;1.73;;
63259;SDS011;49390;51.380;0.098;2022-09-27T07:22:41;5.78;;;1.80;;
63259;SDS011;49390;51.380;0.098;2022-09-27T07:25:13;5.88;;;1.80;;
63259;SDS011;49390;51.380;0.098;2022-09-27T07:27:41;6.78;;;1.80;;
63259;SDS011;49390;51.380;0.098;2022-09-27T07:30:10;6.68;;;2.15;;
63259;SDS011;49390;51.380;0.098;2022-09-27T07:32:39;3.90;;;1.65;;
63259;SDS011;49390;51.380;0.098;2022-09-27T07:35:09;5.97;;;1.73;;
63259;SDS011;49390;51.380;0.098;2022-09-27T07:37:38;11.57;;;2.10;;
63259;SDS011;49390;51.380;0.098;2022-09-27T07:40:07;6.70;;;2.00;;
63259;SDS011;49390;51.380;0.098;2022-09-27T07:42:37;3.65;;;1.70;;
63259;SDS011;49390;51.380;0.098;2022-09-27T07:45:05;5.43;;;1.80;;
63259;SDS011;49390;51.380;0.098;2022-09-27T07:47:54;10.55;;;2.00;;
63259;SDS011;49390;51.380;0.098;2022-09-27T07:50:40;4.30;;;1.90;;
63259;SDS011;49390;51.380;0.098;2022-09-27T07:53:39;6.43;;;2.33;;
63259;SDS011;49390;51.380;0.098;2022-09-27T07:56:26;5.97;;;1.80;;
63259;SDS011;49390;51.380;0.098;2022-09-27T07:58:55;7.35;;;2.13;;
63259;SDS011;49390;51.380;0.098;2022-09-27T08:01:24;7.63;;;2.20;;
63259;SDS011;49390;51.380;0.098;2022-09-27T08:03:52;9.00;;;2.05;;
63259;SDS011;49390;51.380;0.098;2022-09-27T08:06:21;7.30;;;2.40;;
63259;SDS011;49390;51.380;0.098;2022-09-27T08:08:49;11.60;;;2.22;;
63259;SDS011;49390;51.380;0.098;2022-09-27T08:11:18;5.25;;;2.60;;
63259;SDS011;49390;51.380;0.098;2022-09-27T08:13:48;7.25;;;2.10;;
63259;SDS011;49390;51.380;0.098;2022-09-27T08:16:22;7.28;;;2.00;;
63259;SDS011;49390;51.380;0.098;2022-09-27T08:19:09;9.07;;;2.92;;
63259;SDS011;49390;51.380;0.098;2022-09-27T08:21:45;13.00;;;2.60;;
63259;SDS011;49390;51.380;0.098;2022-09-27T08:24:21;9.98;;;2.90;;
63259;SDS011;49390;51.380;0.098;2022-09-27T08:27:03;12.70;;;2.92;;
63259;SDS011;49390;51.380;0.098;2022-09-27T08:29:55;11.77;;;2.50;;
63259;SDS011;49390;51.380;0.098;2022-09-27T08:32:24;9.73;;;3.55;;
63259;SDS011;49390;51.380;0.098;2022-09-27T08:34:52;9.10;;;2.60;;
63259;SDS011;49390;51.380;0.098;2022-09-27T08:37:22;10.30;;;2.58;;
63259;SDS011;49390;51.380;0.098;2022-09-27T08:39:50;7.18;;;2.30;;
63259;SDS011;49390;51.380;0.098;2022-09-27T08:42:39;15.40;;;2.75;;
63259;SDS011;49390;51.380;0.098;2022-09-27T08:45:21;11.98;;;2.88;;
63259;SDS011;49390;51.380;0.098;2022-09-27T08:47:57;8.98;;;2.72;;
63259;SDS011;49390;51.380;0.098;2022-09-27T08:50:28;14.43;;;2.88;;
63259;SDS011;49390;51.380;0.098;2022-09-27T08:55:42;10.02;;;2.85;;
63259;SDS011;49390;51.380;0.098;2022-09-27T08:58:35;11.23;;;2.80;;
63259;SDS011;49390;51.380;0.098;2022-09-27T09:01:30;10.68;;;2.50;;
63259;SDS011;49390;51.380;0.098;2022-09-27T09:04:07;12.52;;;2.80;;
63259;SDS011;49390;51.380;0.098;2022-09-27T09:06:59;10.45;;;2.80;;
63259;SDS011;49390;51.380;0.098;2022-09-27T09:12:32;13.88;;;3.20;;
63259;SDS011;49390;51.380;0.098;2022-09-27T09:15:52;9.60;;;3.00;;
63259;SDS011;49390;51.380;0.098;2022-09-27T09:29:33;12.35;;;3.00;;
63259;SDS011;49390;51.380;0.098;2022-09-27T09:35:14;9.63;;;2.40;;
63259;SDS011;49390;51.380;0.098;2022-09-27T09:37:51;19.77;;;3.03;;
63259;SDS011;49390;51.380;0.098;2022-09-27T09:42:59;10.60;;;3.00;;
63259;SDS011;49390;51.380;0.098;2022-09-27T09:45:39;9.60;;;2.53;;
63259;SDS011;49390;51.380;0.098;2022-09-27T09:51:01;8.85;;;2.90;;
63259;SDS011;49390;51.380;0.098;2022-09-27T09:56:32;10.50;;;2.47;;
63259;SDS011;49390;51.380;0.098;2022-09-27T09:59:14;11.98;;;2.50;;
63259;SDS011;49390;51.380;0.098;2022-09-27T10:01:53;16.30;;;2.58;;
63259;SDS011;49390;51.380;0.098;2022-09-27T10:04:26;13.27;;;3.78;;
63259;SDS011;49390;51.380;0.098;2022-09-27T10:06:58;6.90;;;2.58;;
63259;SDS011;49390;51.380;0.098;2022-09-27T10:09:32;11.00;;;2.75;;
63259;SDS011;49390;51.380;0.098;2022-09-27T10:12:26;11.15;;;2.58;;
63259;SDS011;49390;51.380;0.098;2022-09-27T10:14:59;9.02;;;2.47;;
63259;SDS011;49390;51.380;0.098;2022-09-27T10:17:34;12.40;;;2.67;;
63259;SDS011;49390;51.380;0.098;2022-09-27T10:20:12;14.32;;;2.63;;
63259;SDS011;49390;51.380;0.098;2022-09-27T10:23:12;12.48;;;2.63;;
63259;SDS011;49390;51.380;0.098;2022-09-27T10:26:02;13.00;;;3.05;;
63259;SDS011;49390;51.380;0.098;2022-09-27T10:28:42;12.82;;;2.72;;
63259;SDS011;49390;51.380;0.098;2022-09-27T10:31:14;10.13;;;3.22;;
63259;SDS011;49390;51.380;0.098;2022-09-27T10:33:59;13.45;;;2.85;;
63259;SDS011;49390;51.380;0.098;2022-09-27T10:36:39;10.98;;;3.03;;
63259;SDS011;49390;51.380;0.098;2022-09-27T10:39:09;9.27;;;2.60;;
63259;SDS011;49390;51.380;0.098;2022-09-27T10:41:51;10.07;;;2.97;;
63259;SDS011;49390;51.380;0.098;2022-09-27T10:44:29;12.43;;;2.53;;
63259;SDS011;49390;51.380;0.098;2022-09-27T10:47:16;16.33;;;2.85;;
63259;SDS011;49390;51.380;0.098;2022-09-27T10:50:10;10.05;;;3.45;;
63259;SDS011;49390;51.380;0.098;2022-09-27T10:53:20;8.65;;;2.65;;
63259;SDS011;49390;51.380;0.098;2022-09-27T10:56:03;11.75;;;2.63;;
63259;SDS011;49390;51.380;0.098;2022-09-27T10:58:33;12.07;;;3.13;;
63259;SDS011;49390;51.380;0.098;2022-09-27T11:01:09;8.98;;;2.72;;
63259;SDS011;49390;51.380;0.098;2022-09-27T11:03:48;14.98;;;2.92;;
63259;SDS011;49390;51.380;0.098;2022-09-27T11:08:55;11.07;;;2.80;;
63259;SDS011;49390;51.380;0.098;2022-09-27T11:11:48;11.80;;;2.83;;
63259;SDS011;49390;51.380;0.098;2022-09-27T11:14:18;20.63;;;3.47;;
63259;SDS011;49390;51.380;0.098;2022-09-27T11:28:34;16.77;;;3.13;;
63259;SDS011;49390;51.380;0.098;2022-09-27T11:34:30;13.43;;;3.35;;
63259;SDS011;49390;51.380;0.098;2022-09-27T11:37:43;15.02;;;3.53;;
63259;SDS011;49390;51.380;0.098;2022-09-27T11:46:05;10.77;;;3.53;;
63259;SDS011;49390;51.380;0.098;2022-09-27T11:54:46;11.25;;;2.72;;
63259;SDS011;49390;51.380;0.098;2022-09-27T12:01:00;10.07;;;2.38;;
63259;SDS011;49390;51.380;0.098;2022-09-27T12:06:49;4.27;;;1.90;;
63259;SDS011;49390;51.380;0.098;2022-09-27T12:09:30;9.73;;;1.85;;
63259;SDS011;49390;51.380;0.098;2022-09-27T12:12:13;6.13;;;1.80;;
63259;SDS011;49390;51.380;0.098;2022-09-27T12:15:04;7.03;;;1.70;;
63259;SDS011;49390;51.380;0.098;2022-09-27T12:20:46;10.35;;;2.30;;
63259;SDS011;49390;51.380;0.098;2022-09-27T12:26:35;7.30;;;1.80;;
63259;SDS011;49390;51.380;0.098;2022-09-27T12:29:15;5.43;;;1.92;;
63259;SDS011;49390;51.380;0.098;2022-09-27T12:31:45;7.88;;;2.35;;
63259;SDS011;49390;51.380;0.098;2022-09-27T12:34:41;5.00;;;1.83;;
63259;SDS011;49390;51.380;0.098;2022-09-27T12:48:46;7.72;;;2.83;;
63259;SDS011;49390;51.380;0.098;2022-09-27T12:51:21;4.93;;;1.90;;
63259;SDS011;49390;51.380;0.098;2022-09-27T12:56:58;4.47;;;1.90;;
63259;SDS011;49390;51.380;0.098;2022-09-27T13:02:36;5.75;;;1.77;;
63259;SDS011;49390;51.380;0.098;2022-09-27T13:11:58;5.40;;;2.22;;
63259;SDS011;49390;51.380;0.098;2022-09-27T13:23:02;6.55;;;2.30;;
63259;SDS011;49390;51.380;0.098;2022-09-27T13:34:46;6.05;;;1.92;;
63259;SDS011;49390;51.380;0.098;2022-09-27T13:40:42;7.97;;;2.65;;
63259;SDS011;49390;51.380;0.098;2022-09-27T13:46:59;5.70;;;2.35;;
63259;SDS011;49390;51.380;0.098;2022-09-27T13:49:36;8.63;;;3.95;;
63259;SDS011;49390;51.380;0.098;2022-09-27T13:58:11;3.88;;;1.73;;
63259;SDS011;49390;51.380;0.098;2022-09-27T14:04:04;17.75;;;4.03;;
63259;SDS011;49390;51.380;0.098;2022-09-27T14:06:49;4.30;;;2.38;;
63259;SDS011;49390;51.380;0.098;2022-09-27T14:09:37;5.75;;;2.03;;
63259;SDS011;49390;51.380;0.098;2022-09-27T14:12:18;6.65;;;1.90;;
63259;SDS011;49390;51.380;0.098;2022-09-27T14:15:03;6.63;;;1.90;;
63259;SDS011;49390;51.380;0.098;2022-09-27T14:17:39;6.93;;;2.22;;
63259;SDS011;49390;51.380;0.098;2022-09-27T14:20:37;5.97;;;2.50;;
63259;SDS011;49390;51.380;0.098;2022-09-27T14:23:22;5.97;;;1.90;;
63259;SDS011;49390;51.380;0.098;2022-09-27T14:25:52;5.57;;;1.90;;
63259;SDS011;49390;51.380;0.098;2022-09-27T14:28:23;4.28;;;1.80;;
63259;SDS011;49390;51.380;0.098;2022-09-27T14:31:20;7.05;;;1.88;;
63259;SDS011;49390;51.380;0.098;2022-09-27T14:34:11;4.72;;;1.65;;
63259;SDS011;49390;51.380;0.098;2022-09-27T14:36:46;3.83;;;1.60;;
63259;SDS011;49390;51.380;0.098;2022-09-27T14:39:56;5.07;;;1.60;;
63259;SDS011;49390;51.380;0.098;2022-09-27T14:42:32;5.47;;;1.80;;
63259;SDS011;49390;51.380;0.098;2022-09-27T14:47:57;5.22;;;1.90;;
63259;SDS011;49390;51.380;0.098;2022-09-27T14:50:27;5.55;;;1.70;;
63259;SDS011;49390;51.380;0.098;2022-09-27T14:52:59;6.60;;;1.63;;
63259;SDS011;49390;51.380;0.098;2022-09-27T14:55:31;9.60;;;1.90;;
63259;SDS011;49390;51.380;0.098;2022-09-27T14:58:03;4.60;;;1.83;;
63259;SDS011;49390;51.380;0.098;2022-09-27T15:00:34;6.85;;;1.90;;
63259;SDS011;49390;51.380;0.098;2022-09-27T15:03:19;5.32;;;1.90;;
63259;SDS011;49390;51.380;0.098;2022-09-27T15:06:16;7.90;;;1.88;;
63259;SDS011;49390;51.380;0.098;2022-09-27T15:08:51;7.78;;;1.98;;
63259;SDS011;49390;51.380;0.098;2022-09-27T15:11:21;2.90;;;1.50;;
63259;SDS011;49390;51.380;0.098;2022-09-27T15:13:51;9.52;;;2.55;;
63259;SDS011;49390;51.380;0.098;2022-09-27T15:16:21;6.40;;;2.03;;
63259;SDS011;49390;51.380;0.098;2022-09-27T15:19:00;5.38;;;1.95;;
63259;SDS011;49390;51.380;0.098;2022-09-27T15:21:36;6.80;;;2.45;;
63259;SDS011;49390;51.380;0.098;2022-09-27T15:27:16;7.75;;;2.05;;
63259;SDS011;49390;51.380;0.098;2022-09-27T15:29:48;5.03;;;1.80;;
63259;SDS011;49390;51.380;0.098;2022-09-27T15:32:21;6.40;;;2.20;;
63259;SDS011;49390;51.380;0.098;2022-09-27T15:35:05;7.00;;;2.35;;
63259;SDS011;49390;51.380;0.098;2022-09-27T15:37:39;3.25;;;1.70;;
63259;SDS011;49390;51.380;0.098;2022-09-27T15:42:53;6.38;;;2.97;;
63259;SDS011;49390;51.380;0.098;2022-09-27T15:48:12;8.10;;;2.10;;
63259;SDS011;49390;51.380;0.098;2022-09-27T15:56:04;7.00;;;2.10;;
63259;SDS011;49390;51.380;0.098;2022-09-27T15:58:33;9.38;;;2.08;;
63259;SDS011;49390;51.380;0.098;2022-09-27T16:01:03;5.45;;;2.60;;
63259;SDS011;49390;51.380;0.098;2022-09-27T16:03:33;3.90;;;1.95;;
63259;SDS011;49390;51.380;0.098;2022-09-27T16:06:02;8.85;;;2.40;;
63259;SDS011;49390;51.380;0.098;2022-09-27T16:08:33;7.03;;;2.30;;
63259;SDS011;49390;51.380;0.098;2022-09-27T16:11:03;5.97;;;2.08;;
63259;SDS011;49390;51.380;0.098;2022-09-27T16:13:34;5.95;;;2.38;;
63259;SDS011;49390;51.380;0.098;2022-09-27T16:16:03;7.35;;;2.30;;
63259;SDS011;49390;51.380;0.098;2022-09-27T16:18:34;4.70;;;2.15;;
63259;SDS011;49390;51.380;0.098;2022-09-27T16:21:02;7.50;;;2.65;;
63259;SDS011;49390;51.380;0.098;2022-09-27T16:23:30;7.85;;;2.30;;
63259;SDS011;49390;51.380;0.098;2022-09-27T16:25:58;7.32;;;2.25;;
63259;SDS011;49390;51.380;0.098;2022-09-27T16:28:26;7.53;;;2.28;;
63259;SDS011;49390;51.380;0.098;2022-09-27T16:30:59;7.45;;;2.28;;
63259;SDS011;49390;51.380;0.098;2022-09-27T16:33:33;8.07;;;2.75;;
63259;SDS011;49390;51.380;0.098;2022-09-27T16:36:05;5.03;;;2.20;;
63259;SDS011;49390;51.380;0.098;2022-09-27T16:38:41;3.97;;;2.05;;
63259;SDS011;49390;51.380;0.098;2022-09-27T16:41:11;6.00;;;2.20;;
63259;SDS011;49390;51.380;0.098;2022-09-27T16:43:42;6.70;;;2.40;;
63259;SDS011;49390;51.380;0.098;2022-09-27T16:46:12;5.82;;;2.92;;
63259;SDS011;49390;51.380;0.098;2022-09-27T16:48:46;6.03;;;2.22;;
63259;SDS011;49390;51.380;0.098;2022-09-27T16:51:16;8.07;;;2.35;;
63259;SDS011;49390;51.380;0.098;2022-09-27T16:54:05;6.47;;;2.17;;
63259;SDS011;49390;51.380;0.098;2022-09-27T16:56:35;8.45;;;2.75;;
63259;SDS011;49390;51.380;0.098;2022-09-27T16:59:03;6.25;;;2.78;;
63259;SDS011;49390;51.380;0.098;2022-09-27T17:01:33;5.43;;;2.20;;
63259;SDS011;49390;51.380;0.098;2022-09-27T17:04:03;7.20;;;2.47;;
63259;SDS011;49390;51.380;0.098;2022-09-27T17:06:33;5.18;;;2.33;;
63259;SDS011;49390;51.380;0.098;2022-09-27T17:09:07;10.77;;;2.67;;
63259;SDS011;49390;51.380;0.098;2022-09-27T17:11:42;6.18;;;2.10;;
63259;SDS011;49390;51.380;0.098;2022-09-27T17:14:11;5.50;;;2.38;;
63259;SDS011;49390;51.380;0.098;2022-09-27T17:16:43;6.10;;;2.67;;
63259;SDS011;49390;51.380;0.098;2022-09-27T17:19:14;6.80;;;2.22;;
63259;SDS011;49390;51.380;0.098;2022-09-27T17:21:44;4.53;;;2.10;;
63259;SDS011;49390;51.380;0.098;2022-09-27T17:24:13;7.10;;;2.45;;
63259;SDS011;49390;51.380;0.098;2022-09-27T17:26:42;7.18;;;2.80;;
63259;SDS011;49390;51.380;0.098;2022-09-27T17:29:12;7.60;;;2.92;;
63259;SDS011;49390;51.380;0.098;2022-09-27T17:31:41;7.63;;;2.95;;
63259;SDS011;49390;51.380;0.098;2022-09-27T17:34:11;9.40;;;2.80;;
63259;SDS011;49390;51.380;0.098;2022-09-27T17:36:40;9.27;;;2.90;;
63259;SDS011;49390;51.380;0.098;2022-09-27T17:39:22;6.80;;;2.70;;
63259;SDS011;49390;51.380;0.098;2022-09-27T17:41:50;7.63;;;2.70;;
63259;SDS011;49390;51.380;0.098;2022-09-27T17:44:21;10.75;;;2.97;;
63259;SDS011;49390;51.380;0.098;2022-09-27T17:46:50;6.85;;;2.95;;
63259;SDS011;49390;51.380;0.098;2022-09-27T17:49:39;8.23;;;3.03;;
63259;SDS011;49390;51.380;0.098;2022-09-27T17:53:17;8.95;;;2.70;;
63259;SDS011;49390;51.380;0.098;2022-09-27T17:55:48;6.72;;;3.15;;
63259;SDS011;49390;51.380;0.098;2022-09-27T17:58:16;8.75;;;2.88;;
63259;SDS011;49390;51.380;0.098;2022-09-27T18:00:48;9.95;;;3.10;;
63259;SDS011;49390;51.380;0.098;2022-09-27T18:03:16;10.02;;;3.25;;
63259;SDS011;49390;51.380;0.098;2022-09-27T18:05:47;11.10;;;3.78;;
63259;SDS011;49390;51.380;0.098;2022-09-27T18:08:16;8.57;;;3.10;;
63259;SDS011;49390;51.380;0.098;2022-09-27T18:10:44;8.45;;;3.20;;
63259;SDS011;49390;51.380;0.098;2022-09-27T18:13:12;10.95;;;3.45;;
63259;SDS011;49390;51.380;0.098;2022-09-27T18:19:22;9.43;;;3.92;;
63259;SDS011;49390;51.380;0.098;2022-09-27T18:21:52;7.22;;;3.45;;
63259;SDS011;49390;51.380;0.098;2022-09-27T18:24:21;12.95;;;3.50;;
63259;SDS011;49390;51.380;0.098;2022-09-27T18:29:22;11.75;;;3.80;;
63259;SDS011;49390;51.380;0.098;2022-09-27T18:31:55;8.88;;;3.58;;
63259;SDS011;49390;51.380;0.098;2022-09-27T18:34:27;9.55;;;3.33;;
63259;SDS011;49390;51.380;0.098;2022-09-27T18:36:55;12.93;;;3.67;;
63259;SDS011;49390;51.380;0.098;2022-09-27T18:39:27;8.75;;;3.33;;
63259;SDS011;49390;51.380;0.098;2022-09-27T18:41:56;9.65;;;3.65;;
63259;SDS011;49390;51.380;0.098;2022-09-27T18:44:28;6.68;;;3.38;;
63259;SDS011;49390;51.380;0.098;2022-09-27T18:46:56;9.65;;;3.38;;
63259;SDS011;49390;51.380;0.098;2022-09-27T18:49:26;9.02;;;3.88;;